Woodbury, Texas
Current Conditions -  °F | °C
As of 8:35 PM on Saturday 20 Dec 2014 (Local Time) from KINJ Reporting Station
Overcast Overcast  
Wind Chill: 48°   Ceiling: 2900
Heat Index: 48°   Visibility: 7mi
Dew Point: 44°   Wind: 3mph
Humidity: 88%   Direction: 90°E
Pressure: 30.19"   Gusts: NA
Location:  32.0499°N, 97.1039°W
Report Text: KINJ 210235Z AUTO 09003KT 7SM OVC029 09/07 A3019 RMK AO2 T00870068
Loading
Personal Weather Stations






























Interactive Weather Map New forecast layout! Learn more

10-Day Weather Forecast

Advertisements
Track Severe Weather on mobile